Time;durP1;ratioP1;P1;durP2;ratioP2;P2;SDS_P1;SDS_P2;PMS_P1;PMS_P2;Temp;Humidity;BMP_temperature;BMP_pressure;BME280_temperature;BME280_humidity;BME280_pressure;Samples;Min_cycle;Max_cycle;Signal;HPM_P1;HPM_P2
2023/08/03 00:01:00;;;;;;;3.55;1.63;;;;;;;;;;5007931;28;20050;-88
2023/08/03 00:03:31;;;;;;;5.43;1.70;;;;;;;;;;5018586;28;20053;-88
2023/08/03 00:05:59;;;;;;;5.53;1.52;;;;;;;;;;5020262;28;20154;-88
2023/08/03 00:08:27;;;;;;;4.93;1.73;;;;;;;;;;5025439;28;20086;-88
2023/08/03 00:10:54;;;;;;;10.48;1.90;;;;;;;;;;5018401;28;20153;-88
2023/08/03 00:13:20;;;;;;;7.65;1.52;;;;;;;;;;5023583;28;20453;-88
2023/08/03 00:15:50;;;;;;;7.95;1.85;;;;;;;;;;5029002;28;20050;-88
2023/08/03 00:18:17;;;;;;;5.75;1.88;;;;;;;;;;5019135;28;20185;-88
2023/08/03 00:20:47;;;;;;;6.28;1.83;;;;;;;;;;5017327;28;20318;-88
2023/08/03 00:23:14;;;;;;;6.43;2.05;;;;;;;;;;5016694;28;20049;-88
2023/08/03 00:25:43;;;;;;;7.47;1.80;;;;;;;;;;5025933;28;20168;-88
2023/08/03 00:28:22;;;;;;;3.38;1.90;;;;;;;;;;5037482;28;20206;-88
2023/08/03 00:30:58;;;;;;;10.30;1.80;;;;;;;;;;5027126;28;20434;-88
2023/08/03 00:33:34;;;;;;;7.45;1.67;;;;;;;;;;5019972;28;20069;-88
2023/08/03 00:36:01;;;;;;;5.47;1.88;;;;;;;;;;5018333;28;20093;-88
2023/08/03 00:38:31;;;;;;;6.95;1.77;;;;;;;;;;5021701;28;20050;-88
2023/08/03 00:40:57;;;;;;;7.65;1.67;;;;;;;;;;5023905;28;20054;-88
2023/08/03 00:50:08;;;;;;;11.30;2.17;;;;;;;;;;5021974;28;20102;-88
2023/08/03 00:52:35;;;;;;;8.68;2.00;;;;;;;;;;5007705;28;20128;-88
2023/08/03 00:55:02;;;;;;;6.55;1.83;;;;;;;;;;5028546;28;20046;-88
2023/08/03 00:57:29;;;;;;;4.72;2.03;;;;;;;;;;5031556;28;20050;-88
2023/08/03 00:59:57;;;;;;;7.68;2.00;;;;;;;;;;5023962;28;20300;-88
2023/08/03 01:02:27;;;;;;;8.60;1.85;;;;;;;;;;5025645;28;20494;-88
2023/08/03 01:04:57;;;;;;;4.07;1.40;;;;;;;;;;5024412;28;20053;-88
2023/08/03 01:07:25;;;;;;;5.90;2.10;;;;;;;;;;5025219;28;20064;-88
2023/08/03 01:09:52;;;;;;;9.63;1.73;;;;;;;;;;5024222;28;20046;-88
2023/08/03 01:12:19;;;;;;;5.78;2.08;;;;;;;;;;5024102;28;20077;-87
2023/08/03 01:14:47;;;;;;;4.85;1.50;;;;;;;;;;5021722;28;20086;-88
2023/08/03 01:17:14;;;;;;;11.52;2.28;;;;;;;;;;5024070;28;20331;-88
2023/08/03 01:19:41;;;;;;;4.50;1.83;;;;;;;;;;5022975;28;20061;-88
2023/08/03 01:22:09;;;;;;;6.15;2.20;;;;;;;;;;5025930;28;20506;-88
2023/08/03 01:24:36;;;;;;;6.65;1.70;;;;;;;;;;5030374;28;20077;-87
2023/08/03 01:27:03;;;;;;;5.88;1.90;;;;;;;;;;5031742;28;20049;-88
2023/08/03 01:29:30;;;;;;;7.47;2.03;;;;;;;;;;5047277;28;20069;-88
2023/08/03 01:31:59;;;;;;;9.60;2.08;;;;;;;;;;5043948;28;20056;-88
2023/08/03 01:34:27;;;;;;;7.10;1.88;;;;;;;;;;5025504;28;20045;-88
2023/08/03 01:36:54;;;;;;;11.38;2.03;;;;;;;;;;5043023;28;20103;-88
2023/08/03 01:39:24;;;;;;;9.32;2.17;;;;;;;;;;5041873;28;20055;-88
2023/08/03 01:41:51;;;;;;;6.93;1.85;;;;;;;;;;5042761;28;20053;-88
2023/08/03 01:44:29;;;;;;;3.05;1.25;;;;;;;;;;5040591;28;20311;-88
2023/08/03 01:47:04;;;;;;;6.88;1.70;;;;;;;;;;5041034;28;20049;-88
2023/08/03 01:49:31;;;;;;;8.30;2.63;;;;;;;;;;5042167;28;20045;-88
2023/08/03 01:51:58;;;;;;;2.65;1.25;;;;;;;;;;5042048;28;20057;-88
2023/08/03 01:54:25;;;;;;;6.47;1.75;;;;;;;;;;5042527;28;20053;-88
2023/08/03 01:56:55;;;;;;;7.15;2.35;;;;;;;;;;5043079;28;20041;-88
2023/08/03 01:59:22;;;;;;;4.88;1.65;;;;;;;;;;5025585;28;20057;-88
2023/08/03 02:01:49;;;;;;;5.07;1.70;;;;;;;;;;5040929;28;20045;-88
2023/08/03 02:04:17;;;;;;;4.25;1.10;;;;;;;;;;5042074;28;20162;-88
2023/08/03 02:06:49;;;;;;;4.15;1.17;;;;;;;;;;5041451;28;20065;-88
2023/08/03 02:09:15;;;;;;;11.52;1.48;;;;;;;;;;5041378;28;20046;-88
2023/08/03 02:11:43;;;;;;;4.15;1.40;;;;;;;;;;5041785;28;20132;-88
2023/08/03 02:14:11;;;;;;;4.57;1.45;;;;;;;;;;5041582;28;20144;-88
2023/08/03 02:16:38;;;;;;;9.43;1.42;;;;;;;;;;5041010;28;20053;-88
2023/08/03 02:19:05;;;;;;;10.48;1.60;;;;;;;;;;5040572;28;20053;-88
2023/08/03 02:21:33;;;;;;;5.70;1.00;;;;;;;;;;5038477;28;20433;-88
2023/08/03 02:24:00;;;;;;;8.00;1.48;;;;;;;;;;5039645;28;20167;-88
2023/08/03 02:26:29;;;;;;;3.60;1.15;;;;;;;;;;5022655;28;20053;-88
2023/08/03 02:28:58;;;;;;;8.13;1.50;;;;;;;;;;5020209;28;20149;-89
2023/08/03 02:31:25;;;;;;;8.55;1.80;;;;;;;;;;5021351;28;20144;-89
2023/08/03 02:33:52;;;;;;;6.47;1.70;;;;;;;;;;5030771;28;20097;-90
2023/08/03 02:36:36;;;;;;;11.30;2.10;;;;;;;;;;5036729;28;20030;-89
2023/08/03 02:39:16;;;;;;;8.77;1.98;;;;;;;;;;5038144;28;20093;-87
2023/08/03 02:41:58;;;;;;;3.20;1.73;;;;;;;;;;5038488;28;20099;-88
2023/08/03 02:44:39;;;;;;;5.20;1.70;;;;;;;;;;5038702;28;20038;-89
2023/08/03 02:47:16;;;;;;;3.35;1.50;;;;;;;;;;5023950;28;20106;-87
2023/08/03 02:49:49;;;;;;;6.28;2.08;;;;;;;;;;5012062;28;20397;-89
2023/08/03 02:52:16;;;;;;;4.93;1.80;;;;;;;;;;5022316;28;20116;-88
2023/08/03 02:54:43;;;;;;;7.72;1.70;;;;;;;;;;5019986;28;20111;-89
2023/08/03 02:57:17;;;;;;;5.60;1.70;;;;;;;;;;5021348;28;20097;-88
2023/08/03 02:59:44;;;;;;;6.63;1.75;;;;;;;;;;5019077;28;20056;-89
2023/08/03 03:02:11;;;;;;;3.42;1.67;;;;;;;;;;5019804;28;20140;-88
2023/08/03 03:04:38;;;;;;;7.22;1.70;;;;;;;;;;5018972;28;20042;-89
2023/08/03 03:07:05;;;;;;;4.90;1.70;;;;;;;;;;5019288;28;20443;-89
2023/08/03 03:09:35;;;;;;;9.77;2.15;;;;;;;;;;5019233;28;20053;-89
2023/08/03 03:12:03;;;;;;;9.38;1.90;;;;;;;;;;5023792;28;20070;-88
2023/08/03 03:14:35;;;;;;;11.45;1.90;;;;;;;;;;5018615;28;20118;-88
2023/08/03 03:17:02;;;;;;;8.82;1.80;;;;;;;;;;5018263;28;20217;-89
2023/08/03 03:19:29;;;;;;;4.43;1.80;;;;;;;;;;5015545;28;20247;-88
2023/08/03 03:22:12;;;;;;;10.13;2.22;;;;;;;;;;5033297;28;20068;-88
2023/08/03 03:25:15;;;;;;;8.47;1.77;;;;;;;;;;5045080;28;20041;-88
2023/08/03 03:27:56;;;;;;;7.00;1.88;;;;;;;;;;5057481;28;20033;-89
2023/08/03 03:30:44;;;;;;;4.63;1.90;;;;;;;;;;5105606;22;20028;-88
2023/08/03 03:33:36;;;;;;;8.55;1.60;;;;;;;;;;5103591;22;20047;-86
2023/08/03 03:36:18;;;;;;;13.65;2.17;;;;;;;;;;5062095;28;20091;-88
2023/08/03 03:39:05;;;;;;;11.57;1.90;;;;;;;;;;5076995;28;20025;-88
2023/08/03 03:41:56;;;;;;;7.57;1.67;;;;;;;;;;5226377;22;20048;-88
2023/08/03 03:44:37;;;;;;;3.78;1.58;;;;;;;;;;5062543;28;20059;-88
2023/08/03 03:47:18;;;;;;;8.25;1.50;;;;;;;;;;5061713;28;20043;-87
2023/08/03 03:52:42;;;;;;;5.00;1.55;;;;;;;;;;5096442;28;20032;-87
2023/08/03 03:55:36;;;;;;;8.90;3.00;;;;;;;;;;5081979;28;20039;-88
2023/08/03 03:58:39;;;;;;;4.10;1.00;;;;;;;;;;5095515;28;20039;-86
2023/08/03 04:01:21;;;;;;;4.40;1.48;;;;;;;;;;5081634;28;20036;-88
2023/08/03 04:06:46;;;;;;;2.78;1.23;;;;;;;;;;5383766;22;20041;-88
2023/08/03 04:09:27;;;;;;;3.55;1.67;;;;;;;;;;5096670;28;20052;-88
2023/08/03 04:16:14;;;;;;;2.45;1.30;;;;;;;;;;5097449;28;20074;-87
2023/08/03 04:19:19;;;;;;;3.92;1.42;;;;;;;;;;5113061;22;20042;-88
2023/08/03 04:22:14;;;;;;;3.72;1.33;;;;;;;;;;4836492;26;20060;-90
2023/08/03 04:27:45;;;;;;;2.72;1.58;;;;;;;;;;5554607;22;20049;-88
2023/08/03 04:30:32;;;;;;;6.07;1.55;;;;;;;;;;5492595;22;21453;-86
2023/08/03 04:33:36;;;;;;;4.28;1.67;;;;;;;;;;5152867;22;20052;-88
2023/08/03 04:36:25;;;;;;;3.17;1.70;;;;;;;;;;5097037;28;20033;-87
2023/08/03 04:39:09;;;;;;;2.85;1.83;;;;;;;;;;5096206;28;20059;-88
2023/08/03 04:49:33;;;;;;;2.85;1.85;;;;;;;;;;5076281;28;20045;-89
2023/08/03 04:52:14;;;;;;;5.15;2.50;;;;;;;;;;5076529;28;20041;-88
2023/08/03 04:54:55;;;;;;;2.20;2.00;;;;;;;;;;5061488;28;20041;-88
2023/08/03 04:57:36;;;;;;;3.58;2.35;;;;;;;;;;5076117;28;20192;-87
2023/08/03 05:00:19;;;;;;;6.93;2.13;;;;;;;;;;5073735;28;20036;-90
2023/08/03 05:03:02;;;;;;;4.97;2.55;;;;;;;;;;5075343;28;20024;-88
2023/08/03 05:05:47;;;;;;;3.40;2.42;;;;;;;;;;5061258;28;20023;-88
2023/08/03 05:11:06;;;;;;;4.43;2.80;;;;;;;;;;5415562;22;20048;-88
2023/08/03 05:13:55;;;;;;;;;;;;;;;;;;5096465;28;20060;-88
2023/08/03 05:17:01;;;;;;;3.13;2.75;;;;;;;;;;5095759;28;19927;-88
2023/08/03 05:19:42;;;;;;;5.50;2.85;;;;;;;;;;5118286;22;20028;-89
2023/08/03 05:22:26;;;;;;;4.57;3.03;;;;;;;;;;5057899;28;20029;-88
2023/08/03 05:25:27;;;;;;;9.45;2.83;;;;;;;;;;5043844;28;20053;-88
2023/08/03 05:28:12;;;;;;;5.20;2.40;;;;;;;;;;5394999;22;20056;-89
2023/08/03 05:31:12;;;;;;;9.02;2.38;;;;;;;;;;5039910;28;20047;-89
2023/08/03 05:34:26;;;;;;;4.65;2.03;;;;;;;;;;5039127;28;20041;-90
2023/08/03 06:29:41;;;;;;;4.05;2.83;;;;;;;;;;5881546;22;20029;-90
2023/08/03 06:38:02;;;;;;;;;;;;;;;;;;;;;
2023/08/03 06:40:52;;;;;;;8.27;3.65;;;;;;;;;;1297188;26;20033;-88
2023/08/03 06:46:42;;;;;;;11.00;3.80;;;;;;;;;;5872111;22;20052;-90
2023/08/03 07:40:49;;;;;;;5.37;2.17;;;;;;;;;;5455566;22;20040;-89
2023/08/03 07:43:42;;;;;;;2.28;1.50;;;;;;;;;;5728219;22;20041;-89
2023/08/03 07:49:02;;;;;;;3.55;1.25;;;;;;;;;;5338986;22;20426;-88
2023/08/03 07:52:06;;;;;;;4.63;1.27;;;;;;;;;;5058877;28;20051;-89
2023/08/03 07:55:11;;;;;;;8.45;1.75;;;;;;;;;;5163416;22;20056;-89
2023/08/03 07:57:59;;;;;;;8.05;1.45;;;;;;;;;;5088953;28;20036;-89
2023/08/03 08:03:57;;;;;;;2.63;1.30;;;;;;;;;;5762472;22;20061;-90
2023/08/03 08:09:27;;;;;;;4.28;1.10;;;;;;;;;;3138482;22;20025;-89
2023/08/03 08:14:55;;;;;;;2.80;1.15;;;;;;;;;;5179818;22;20065;-91
2023/08/03 08:18:18;;;;;;;8.40;1.25;;;;;;;;;;5067484;28;20056;-90
2023/08/03 08:23:51;;;;;;;4.75;1.08;;;;;;;;;;569448;26;20708;-87
2023/08/03 08:26:44;;;;;;;1.73;1.02;;;;;;;;;;5811477;22;20048;-89
2023/08/03 08:37:32;;;;;;;4.97;1.50;;;;;;;;;;5545382;22;20373;-91
2023/08/03 09:19:45;;;;;;;1.50;0.88;;;;;;;;;;2970507;22;20097;-90
2023/08/03 09:25:17;;;;;;;1.40;0.30;;;;;;;;;;5519223;22;20100;-90
2023/08/03 09:33:53;;;;;;;0.88;0.47;;;;;;;;;;4330495;26;20037;-89
2023/08/03 09:36:48;;;;;;;1.40;0.32;;;;;;;;;;5061298;28;20059;-90
2023/08/03 09:40:17;;;;;;;0.77;0.13;;;;;;;;;;5059740;28;20057;-88
2023/08/03 09:42:58;;;;;;;1.15;0.40;;;;;;;;;;5059608;28;20060;-89
2023/08/03 09:48:21;;;;;;;1.25;0.20;;;;;;;;;;5293238;22;20079;-88
2023/08/03 09:51:03;;;;;;;1.02;0.30;;;;;;;;;;5058839;28;20079;-87
2023/08/03 09:54:10;;;;;;;5.25;0.20;;;;;;;;;;5072802;28;20056;-87
2023/08/03 09:56:59;;;;;;;0.57;0.10;;;;;;;;;;5057937;28;20117;-88
2023/08/03 10:00:03;;;;;;;1.48;0.30;;;;;;;;;;5074728;28;20103;-89
2023/08/03 10:10:56;;;;;;;2.63;0.30;;;;;;;;;;5119812;22;19905;-89
2023/08/03 10:13:36;;;;;;;;;;;;;;;;;;5105200;22;20094;-90
2023/08/03 10:28:43;;;;;;;0.40;0.20;;;;;;;;;;4670756;26;20041;-89
2023/08/03 10:31:29;;;;;;;0.20;0.13;;;;;;;;;;5339785;22;20065;-88
2023/08/03 10:34:12;;;;;;;0.13;0.10;;;;;;;;;;5072738;28;20053;-89
2023/08/03 10:43:10;;;;;;;0.68;0.20;;;;;;;;;;1891528;22;20070;-89
2023/08/03 10:46:16;;;;;;;0.88;0.20;;;;;;;;;;5177166;22;20049;-89
2023/08/03 10:54:11;;;;;;;2.15;0.30;;;;;;;;;;5611657;22;20044;-89
2023/08/03 10:57:12;;;;;;;0.75;0.20;;;;;;;;;;5077997;28;20049;-89
2023/08/03 11:00:01;;;;;;;0.60;0.28;;;;;;;;;;5081524;28;20048;-89
2023/08/03 11:08:28;;;;;;;0.30;0.25;;;;;;;;;;5300665;22;20060;-88
2023/08/03 11:11:20;;;;;;;0.93;0.20;;;;;;;;;;5443819;22;20287;-90
2023/08/03 11:14:03;;;;;;;4.20;0.65;;;;;;;;;;5061248;28;20059;-89
2023/08/03 11:36:42;;;;;;;1.27;0.38;;;;;;;;;;5441368;22;20053;-88
2023/08/03 12:13:21;;;;;;;1.85;0.40;;;;;;;;;;906002;22;20316;-87
2023/08/03 12:16:06;;;;;;;1.70;0.30;;;;;;;;;;5054278;28;20061;-87
2023/08/03 12:19:37;;;;;;;3.13;0.22;;;;;;;;;;5069864;28;20139;-87
2023/08/03 12:22:27;;;;;;;2.90;0.40;;;;;;;;;;5051688;28;20075;-86
2023/08/03 12:25:27;;;;;;;3.97;0.50;;;;;;;;;;5051450;28;20084;-85
2023/08/03 12:28:16;;;;;;;1.08;0.30;;;;;;;;;;5053378;28;20086;-87
2023/08/03 12:38:51;;;;;;;2.13;0.50;;;;;;;;;;5031467;26;20045;-86
2023/08/03 12:41:40;;;;;;;1.60;0.30;;;;;;;;;;5029302;28;20049;-87
2023/08/03 12:44:42;;;;;;;3.45;0.85;;;;;;;;;;5029909;28;20285;-87
2023/08/03 12:47:52;;;;;;;1.58;0.50;;;;;;;;;;5045866;28;20114;-87
2023/08/03 12:51:03;;;;;;;1.20;0.30;;;;;;;;;;5049660;28;20083;-88
2023/08/03 12:53:47;;;;;;;;;;;;;;;;;;5032397;28;20029;-88
2023/08/03 12:59:51;;;;;;;0.93;0.30;;;;;;;;;;5048411;28;20032;-86
2023/08/03 13:02:33;;;;;;;2.40;0.40;;;;;;;;;;5032185;28;20277;-87
2023/08/03 13:05:18;;;;;;;2.42;0.50;;;;;;;;;;5030981;28;20053;-87
2023/08/03 13:07:59;;;;;;;2.33;0.50;;;;;;;;;;5029316;28;20115;-86
2023/08/03 13:10:42;;;;;;;2.58;0.30;;;;;;;;;;5046284;28;20194;-88
2023/08/03 13:13:53;;;;;;;0.70;0.35;;;;;;;;;;5045682;28;20049;-88
2023/08/03 13:16:58;;;;;;;0.93;0.30;;;;;;;;;;5051772;28;20029;-89
2023/08/03 13:19:41;;;;;;;1.45;0.30;;;;;;;;;;5043266;28;20526;-86
2023/08/03 13:22:38;;;;;;;2.92;0.50;;;;;;;;;;5026318;28;20491;-86
2023/08/03 13:25:22;;;;;;;2.15;0.20;;;;;;;;;;5027992;28;20167;-86
2023/08/03 13:28:15;;;;;;;1.10;0.32;;;;;;;;;;5031355;28;20177;-86
2023/08/03 13:30:59;;;;;;;1.65;0.40;;;;;;;;;;5030418;28;20071;-88
2023/08/03 13:33:40;;;;;;;1.20;0.32;;;;;;;;;;5029466;28;20053;-86
2023/08/03 13:36:30;;;;;;;2.13;0.35;;;;;;;;;;5032005;28;20041;-89
2023/08/03 13:39:20;;;;;;;3.15;0.47;;;;;;;;;;5033848;28;20085;-87
2023/08/03 13:42:19;;;;;;;2.80;0.60;;;;;;;;;;5048126;28;20132;-87
2023/08/03 13:45:14;;;;;;;2.25;0.50;;;;;;;;;;5048557;28;20046;-87
2023/08/03 13:48:24;;;;;;;0.88;0.85;;;;;;;;;;5049830;28;20041;-89
2023/08/03 13:51:51;;;;;;;1.00;0.28;;;;;;;;;;5051518;28;20028;-88
2023/08/03 13:54:37;;;;;;;3.25;0.60;;;;;;;;;;5052009;28;20144;-88
2023/08/03 14:03:24;;;;;;;2.03;0.70;;;;;;;;;;5052981;26;20051;-89
2023/08/03 14:31:34;;;;;;;1.73;0.65;;;;;;;;;;5089691;28;20063;-87
2023/08/03 14:34:28;;;;;;;3.17;0.80;;;;;;;;;;5088906;28;20035;-88
2023/08/03 14:37:30;;;;;;;3.20;0.77;;;;;;;;;;5074724;28;20104;-87
2023/08/03 14:40:39;;;;;;;2.38;0.60;;;;;;;;;;5092007;28;20101;-89
2023/08/03 14:43:27;;;;;;;3.83;0.70;;;;;;;;;;5087768;28;20221;-88
2023/08/03 14:46:38;;;;;;;4.65;0.80;;;;;;;;;;5082518;28;20619;-87
2023/08/03 14:49:26;;;;;;;4.38;0.60;;;;;;;;;;5138510;22;20057;-88
2023/08/03 15:01:02;;;;;;;3.85;0.60;;;;;;;;;;5486876;22;20057;-87
2023/08/03 15:04:06;;;;;;;2.97;0.73;;;;;;;;;;5056808;28;20037;-87
2023/08/03 15:30:04;;;;;;;4.80;0.90;;;;;;;;;;5457007;22;20061;-87
2023/08/03 15:32:49;;;;;;;5.57;1.02;;;;;;;;;;5085470;28;20222;-88
2023/08/03 15:36:08;;;;;;;8.27;0.70;;;;;;;;;;5147478;22;20087;-91
2023/08/03 15:38:55;;;;;;;2.78;1.20;;;;;;;;;;5052234;28;20041;-87
2023/08/03 15:42:14;;;;;;;1.80;0.75;;;;;;;;;;5052777;28;20033;-88
2023/08/03 15:44:59;;;;;;;5.70;0.90;;;;;;;;;;5049891;28;20127;-87
2023/08/03 15:47:45;;;;;;;4.55;0.90;;;;;;;;;;5054715;28;20051;-90
2023/08/03 15:55:40;;;;;;;2.67;0.93;;;;;;;;;;1382106;22;20323;-87
2023/08/03 15:58:20;;;;;;;4.90;1.10;;;;;;;;;;5073783;28;20044;-89
2023/08/03 16:01:04;;;;;;;3.35;0.63;;;;;;;;;;5226967;22;20037;-90
2023/08/03 16:04:01;;;;;;;;;;;;;;;;;;;;;
2023/08/03 16:24:25;;;;;;;5.40;0.90;;;;;;;;;;5762202;22;20020;-90
2023/08/03 16:29:43;;;;;;;2.43;0.67;;;;;;;;;;5069270;28;20127;-89
2023/08/03 16:35:51;;;;;;;4.05;0.50;;;;;;;;;;5066664;28;20064;-89
2023/08/03 16:38:34;;;;;;;5.07;0.52;;;;;;;;;;5071397;28;20127;-88
2023/08/03 16:41:26;;;;;;;2.47;0.70;;;;;;;;;;5082129;22;20037;-88
2023/08/03 16:44:07;;;;;;;3.85;0.85;;;;;;;;;;5066739;28;20150;-89
2023/08/03 16:46:52;;;;;;;2.40;0.63;;;;;;;;;;5056761;28;20075;-89
2023/08/03 16:49:48;;;;;;;1.52;0.52;;;;;;;;;;5071392;28;20024;-90
2023/08/03 16:52:48;;;;;;;3.42;0.60;;;;;;;;;;5059114;28;20060;-86
2023/08/03 16:55:38;;;;;;;2.92;0.40;;;;;;;;;;5069541;28;20033;-88
2023/08/03 16:58:29;;;;;;;3.10;0.60;;;;;;;;;;5070299;28;20029;-87
2023/08/03 17:01:10;;;;;;;4.07;0.45;;;;;;;;;;5050367;28;20049;-88
2023/08/03 17:03:53;;;;;;;3.08;0.90;;;;;;;;;;5051457;28;20075;-89
2023/08/03 17:10:21;;;;;;;3.63;0.80;;;;;;;;;;5071261;28;20113;-88
2023/08/03 17:13:09;;;;;;;3.08;0.70;;;;;;;;;;5237480;22;20061;-89
2023/08/03 17:15:53;;;;;;;4.07;0.73;;;;;;;;;;5033922;28;20056;-88
2023/08/03 17:21:43;;;;;;;5.72;0.93;;;;;;;;;;5054035;28;19935;-89
2023/08/03 17:24:49;;;;;;;4.97;0.70;;;;;;;;;;5040763;28;20076;-89
2023/08/03 17:27:44;;;;;;;3.83;0.60;;;;;;;;;;5053002;28;20049;-90
2023/08/03 17:30:40;;;;;;;3.22;0.90;;;;;;;;;;5053930;28;20033;-89
2023/08/03 17:36:19;;;;;;;7.47;1.10;;;;;;;;;;5504308;22;20067;-89
2023/08/03 17:39:03;;;;;;;3.72;1.08;;;;;;;;;;5038169;28;20464;-88
2023/08/03 17:41:51;;;;;;;1.92;0.52;;;;;;;;;;5053698;28;20041;-90
2023/08/03 17:44:45;;;;;;;4.13;0.80;;;;;;;;;;5045354;28;20056;-89
2023/08/03 17:47:33;;;;;;;5.03;0.80;;;;;;;;;;5055257;28;20041;-89
2023/08/03 17:50:17;;;;;;;1.98;0.80;;;;;;;;;;5040243;28;20047;-91
2023/08/03 17:53:07;;;;;;;8.65;0.95;;;;;;;;;;5056000;28;20036;-90
2023/08/03 18:02:16;;;;;;;4.93;1.15;;;;;;;;;;5348805;22;20048;-90
2023/08/03 18:08:06;;;;;;;3.38;1.42;;;;;;;;;;6180228;22;20019;-90
2023/08/03 18:10:54;;;;;;;3.53;1.10;;;;;;;;;;5075989;28;20043;-91
2023/08/03 18:16:58;;;;;;;3.50;0.90;;;;;;;;;;5073977;28;20168;-91
2023/08/03 18:22:39;;;;;;;4.85;0.95;;;;;;;;;;5224813;22;20024;-88
2023/08/03 18:25:27;;;;;;;5.10;1.05;;;;;;;;;;5039175;28;20832;-89
2023/08/03 18:28:19;;;;;;;4.80;1.27;;;;;;;;;;5056003;28;20033;-92
2023/08/03 18:33:40;;;;;;;10.43;2.27;;;;;;;;;;5131065;22;20060;-89
2023/08/03 18:36:23;;;;;;;6.07;1.33;;;;;;;;;;5158112;22;20802;-90
2023/08/03 18:39:05;;;;;;;10.50;1.67;;;;;;;;;;5539898;22;20104;-89
2023/08/03 18:41:48;;;;;;;8.55;1.60;;;;;;;;;;5050097;28;20088;-90
2023/08/03 18:44:32;;;;;;;5.57;1.30;;;;;;;;;;5594234;22;20023;-90
2023/08/03 18:47:27;;;;;;;9.07;1.65;;;;;;;;;;5092081;28;20052;-90
2023/08/03 18:55:26;;;;;;;5.33;1.43;;;;;;;;;;5668538;22;20045;-90
2023/08/03 18:58:35;;;;;;;3.85;1.50;;;;;;;;;;5074963;28;20116;-92
2023/08/03 19:06:52;;;;;;;5.13;1.88;;;;;;;;;;5191861;22;20064;-90
2023/08/03 19:09:37;;;;;;;10.05;1.38;;;;;;;;;;5080063;28;20044;-90
2023/08/03 19:12:39;;;;;;;9.15;1.95;;;;;;;;;;5088707;22;20052;-91
2023/08/03 19:15:34;;;;;;;7.72;1.73;;;;;;;;;;5075111;28;20040;-88
2023/08/03 19:18:19;;;;;;;6.00;1.73;;;;;;;;;;5337863;22;20064;-91
2023/08/03 19:23:52;;;;;;;6.80;1.97;;;;;;;;;;3051961;26;20072;-91
2023/08/03 19:29:23;;;;;;;3.22;1.60;;;;;;;;;;5110645;22;20472;-93
2023/08/03 19:32:04;;;;;;;8.07;1.80;;;;;;;;;;5120197;22;20060;-89
2023/08/03 19:34:46;;;;;;;4.30;2.17;;;;;;;;;;5073190;28;20041;-89
2023/08/03 19:37:54;;;;;;;6.32;1.90;;;;;;;;;;5056964;28;20051;-91
2023/08/03 19:43:27;;;;;;;6.45;2.33;;;;;;;;;;5074476;28;20058;-90
2023/08/03 19:46:49;;;;;;;9.30;2.10;;;;;;;;;;5073512;28;20057;-90
2023/08/03 19:49:35;;;;;;;7.03;2.20;;;;;;;;;;5074334;28;20023;-89
2023/08/03 19:52:31;;;;;;;8.68;2.35;;;;;;;;;;5174324;22;20048;-89
2023/08/03 19:55:16;;;;;;;11.93;2.80;;;;;;;;;;5075986;28;20064;-89
2023/08/03 19:58:17;;;;;;;10.00;2.78;;;;;;;;;;5076944;28;20048;-88
2023/08/03 20:01:05;;;;;;;7.18;3.03;;;;;;;;;;5076475;28;20048;-89
2023/08/03 20:03:56;;;;;;;6.07;2.85;;;;;;;;;;5077112;28;20066;-89
2023/08/03 20:06:40;;;;;;;5.88;2.50;;;;;;;;;;5077278;28;20032;-88
2023/08/03 20:09:40;;;;;;;5.68;2.65;;;;;;;;;;5077770;28;20169;-89
2023/08/03 20:12:49;;;;;;;12.30;4.82;;;;;;;;;;5077011;28;20052;-88
2023/08/03 20:15:37;;;;;;;11.95;2.95;;;;;;;;;;5078200;28;20041;-89
2023/08/03 20:18:23;;;;;;;9.75;3.00;;;;;;;;;;5076670;28;20110;-90
2023/08/03 20:21:08;;;;;;;14.88;3.45;;;;;;;;;;5076372;28;20108;-89
2023/08/03 20:23:52;;;;;;;9.15;2.70;;;;;;;;;;5091021;28;20036;-88
2023/08/03 20:26:45;;;;;;;14.70;3.95;;;;;;;;;;5092017;28;20025;-90
2023/08/03 20:29:28;;;;;;;9.07;3.10;;;;;;;;;;5075341;28;20060;-91
2023/08/03 20:32:11;;;;;;;10.45;3.22;;;;;;;;;;5093245;28;20041;-89
2023/08/03 20:34:55;;;;;;;14.68;3.55;;;;;;;;;;5090006;28;20095;-91
2023/08/03 20:37:41;;;;;;;12.60;3.38;;;;;;;;;;5076802;28;20054;-90
2023/08/03 20:40:22;;;;;;;15.20;4.00;;;;;;;;;;5092096;28;20181;-90
2023/08/03 20:46:12;;;;;;;14.50;3.72;;;;;;;;;;5093190;28;20036;-89
2023/08/03 20:48:53;;;;;;;9.10;4.70;;;;;;;;;;5089715;28;20067;-89
2023/08/03 20:51:34;;;;;;;12.00;4.15;;;;;;;;;;5070393;28;20052;-89
2023/08/03 20:54:15;;;;;;;13.73;3.55;;;;;;;;;;5075106;28;20053;-89
2023/08/03 21:00:20;;;;;;;12.02;4.28;;;;;;;;;;5075637;28;20080;-90
2023/08/03 21:03:03;;;;;;;14.00;3.87;;;;;;;;;;5076014;28;20132;-90
2023/08/03 21:05:45;;;;;;;12.98;3.88;;;;;;;;;;5057512;28;20104;-89
2023/08/03 21:08:16;;;;;;;15.40;3.70;;;;;;;;;;5075382;28;20092;-89
2023/08/03 21:10:58;;;;;;;12.65;3.78;;;;;;;;;;5074353;28;20041;-89
2023/08/03 21:13:40;;;;;;;12.75;4.13;;;;;;;;;;5074589;28;20083;-89
2023/08/03 21:16:21;;;;;;;8.10;3.53;;;;;;;;;;5075146;28;20045;-90
2023/08/03 21:18:51;;;;;;;11.15;3.47;;;;;;;;;;5076609;28;20040;-88
2023/08/03 21:21:27;;;;;;;18.15;4.05;;;;;;;;;;5076339;28;20104;-89
2023/08/03 21:24:18;;;;;;;8.95;4.03;;;;;;;;;;5077578;28;20033;-89
2023/08/03 21:27:02;;;;;;;16.73;3.47;;;;;;;;;;5303473;22;20023;-89
2023/08/03 21:29:33;;;;;;;10.00;3.63;;;;;;;;;;5078875;28;20051;-89
2023/08/03 21:32:21;;;;;;;10.18;3.47;;;;;;;;;;5063119;28;20068;-89
2023/08/03 21:35:24;;;;;;;18.45;4.55;;;;;;;;;;5078031;28;20095;-90
2023/08/03 21:38:17;;;;;;;11.60;3.30;;;;;;;;;;5075807;28;20120;-89
2023/08/03 21:40:57;;;;;;;8.55;3.30;;;;;;;;;;5073958;28;20029;-86
2023/08/03 21:43:38;;;;;;;14.85;3.58;;;;;;;;;;5057425;28;20049;-90
2023/08/03 21:49:45;;;;;;;10.43;4.32;;;;;;;;;;5074567;28;20047;-89
2023/08/03 21:52:23;;;;;;;6.82;3.38;;;;;;;;;;5073177;28;20049;-89
2023/08/03 21:54:52;;;;;;;17.58;3.85;;;;;;;;;;5072507;28;20128;-88
2023/08/03 21:57:32;;;;;;;16.95;3.60;;;;;;;;;;5058119;28;20053;-89
2023/08/03 22:00:03;;;;;;;20.88;4.30;;;;;;;;;;5073219;28;20060;-89
2023/08/03 22:02:33;;;;;;;9.52;3.50;;;;;;;;;;5057700;28;20079;-89
2023/08/03 22:05:10;;;;;;;10.55;4.03;;;;;;;;;;5058055;28;20076;-89
2023/08/03 22:07:55;;;;;;;11.15;3.95;;;;;;;;;;5057998;28;20110;-89
2023/08/03 22:10:45;;;;;;;11.18;3.45;;;;;;;;;;5052170;28;20044;-87
2023/08/03 22:13:29;;;;;;;13.30;3.55;;;;;;;;;;5052381;28;20106;-87
2023/08/03 22:16:11;;;;;;;16.90;3.90;;;;;;;;;;5051704;28;20044;-86
2023/08/03 22:18:53;;;;;;;11.68;4.10;;;;;;;;;;5052081;28;20089;-88
2023/08/03 22:21:37;;;;;;;20.40;4.15;;;;;;;;;;5068992;28;20075;-87
2023/08/03 22:24:07;;;;;;;12.45;3.25;;;;;;;;;;5049948;28;20045;-86
2023/08/03 22:26:45;;;;;;;8.73;3.85;;;;;;;;;;5050639;28;20618;-86
2023/08/03 22:29:12;;;;;;;18.02;4.10;;;;;;;;;;5043137;28;20111;-86
2023/08/03 22:31:39;;;;;;;21.92;4.35;;;;;;;;;;5044158;28;20103;-86
2023/08/03 22:34:11;;;;;;;14.43;3.83;;;;;;;;;;5041946;28;20048;-86
2023/08/03 22:36:38;;;;;;;10.88;4.22;;;;;;;;;;5043327;28;20075;-86
2023/08/03 22:39:05;;;;;;;11.65;3.85;;;;;;;;;;5061105;28;20133;-86
2023/08/03 22:41:33;;;;;;;12.20;3.97;;;;;;;;;;5042834;28;20118;-86
2023/08/03 22:44:04;;;;;;;9.65;3.65;;;;;;;;;;5044539;28;20076;-87
2023/08/03 22:46:31;;;;;;;24.25;4.63;;;;;;;;;;5045256;28;20049;-86
2023/08/03 22:49:04;;;;;;;16.23;3.78;;;;;;;;;;5060720;28;20273;-86
2023/08/03 22:51:36;;;;;;;16.17;4.53;;;;;;;;;;5061524;28;20053;-86
2023/08/03 22:54:03;;;;;;;13.77;3.65;;;;;;;;;;5042380;28;20072;-86
2023/08/03 22:56:30;;;;;;;15.25;4.15;;;;;;;;;;5041849;28;20056;-86
2023/08/03 22:58:57;;;;;;;10.02;3.70;;;;;;;;;;5041617;28;20152;-86
2023/08/03 23:01:25;;;;;;;16.92;3.92;;;;;;;;;;5044115;28;20075;-86
2023/08/03 23:03:52;;;;;;;11.50;3.30;;;;;;;;;;5044631;28;20049;-87
2023/08/03 23:06:20;;;;;;;13.98;3.90;;;;;;;;;;5053065;28;20056;-88
2023/08/03 23:08:48;;;;;;;11.25;3.78;;;;;;;;;;5049566;28;20364;-86
2023/08/03 23:11:16;;;;;;;13.82;4.00;;;;;;;;;;5045289;28;20053;-86
2023/08/03 23:13:44;;;;;;;13.57;3.75;;;;;;;;;;5045702;28;20064;-86
2023/08/03 23:16:28;;;;;;;15.25;3.50;;;;;;;;;;5067280;28;20079;-86
2023/08/03 23:18:57;;;;;;;14.23;3.60;;;;;;;;;;5049156;28;20037;-86
2023/08/03 23:21:33;;;;;;;10.15;3.40;;;;;;;;;;5045602;28;20229;-87
2023/08/03 23:24:03;;;;;;;8.95;3.17;;;;;;;;;;5043028;28;20467;-86
2023/08/03 23:26:34;;;;;;;13.77;3.60;;;;;;;;;;5061694;28;20079;-86
2023/08/03 23:29:04;;;;;;;19.92;3.88;;;;;;;;;;5063387;28;20060;-86
2023/08/03 23:31:34;;;;;;;8.30;3.05;;;;;;;;;;5063975;28;20044;-86
2023/08/03 23:34:03;;;;;;;11.65;3.53;;;;;;;;;;5062865;28;20052;-86
2023/08/03 23:36:31;;;;;;;9.82;3.13;;;;;;;;;;5063113;28;20052;-86
2023/08/03 23:38:58;;;;;;;12.02;3.55;;;;;;;;;;5080160;28;20048;-86
2023/08/03 23:41:26;;;;;;;12.02;2.78;;;;;;;;;;5062670;28;20059;-87
2023/08/03 23:43:54;;;;;;;9.35;2.90;;;;;;;;;;5062971;28;20056;-87
2023/08/03 23:46:20;;;;;;;12.30;3.95;;;;;;;;;;5063324;28;20106;-87
2023/08/03 23:48:47;;;;;;;10.25;3.67;;;;;;;;;;5063331;28;20059;-87
2023/08/03 23:51:14;;;;;;;13.25;3.78;;;;;;;;;;5063246;28;20159;-87
2023/08/03 23:53:44;;;;;;;8.75;3.38;;;;;;;;;;5064609;28;20068;-86
2023/08/03 23:56:11;;;;;;;12.82;3.67;;;;;;;;;;5065216;28;20056;-86
2023/08/03 23:58:38;;;;;;;11.63;2.88;;;;;;;;;;5066708;28;20082;-86
